Time;durP1;ratioP1;P1;durP2;ratioP2;P2;SDS_P1;SDS_P2;PMS_P1;PMS_P2;Temp;Humidity;BMP_temperature;BMP_pressure;BME280_temperature;BME280_humidity;BME280_pressure;Samples;Min_cycle;Max_cycle;Signal;HPM_P1;HPM_P2
2022/07/12 00:00:25;;;;;;;14.27;12.77;;;;;;;;;;6085730;23;20026;-58
2022/07/12 00:02:51;;;;;;;15.57;13.98;;;;;;;;;;6114410;23;20076;-57
2022/07/12 00:05:18;;;;;;;15.95;12.93;;;;;;;;;;6109765;23;20037;-57
2022/07/12 00:07:44;;;;;;;17.83;14.10;;;;;;;;;;6116537;23;20050;-57
2022/07/12 00:10:11;;;;;;;14.93;13.35;;;;;;;;;;6103762;23;20050;-57
2022/07/12 00:12:38;;;;;;;17.05;15.27;;;;;;;;;;6119092;23;20433;-56
2022/07/12 00:15:05;;;;;;;18.35;16.35;;;;;;;;;;6083909;23;20776;-57
2022/07/12 00:17:33;;;;;;;21.98;17.85;;;;;;;;;;6087782;23;20018;-57
2022/07/12 00:20:00;;;;;;;23.70;21.02;;;;;;;;;;6102413;23;20014;-57
2022/07/12 00:22:28;;;;;;;27.50;22.92;;;;;;;;;;6116471;23;20084;-57
2022/07/12 00:24:55;;;;;;;31.35;24.30;;;;;;;;;;6102162;23;20079;-57
2022/07/12 00:27:21;;;;;;;30.75;25.63;;;;;;;;;;6116415;23;20076;-57
2022/07/12 00:29:48;;;;;;;35.53;28.48;;;;;;;;;;6110624;23;20018;-57
2022/07/12 00:32:14;;;;;;;28.77;25.35;;;;;;;;;;6113775;23;20017;-58
2022/07/12 00:34:42;;;;;;;28.95;23.77;;;;;;;;;;6112190;23;20324;-57
2022/07/12 00:37:08;;;;;;;32.85;27.35;;;;;;;;;;6113993;23;20499;-57
2022/07/12 00:39:35;;;;;;;37.85;30.85;;;;;;;;;;6113038;23;20014;-57
2022/07/12 00:42:01;;;;;;;39.58;32.60;;;;;;;;;;6109195;23;20018;-57
2022/07/12 00:44:30;;;;;;;37.97;33.40;;;;;;;;;;6110924;23;20045;-56
2022/07/12 00:46:57;;;;;;;41.85;34.03;;;;;;;;;;6114048;23;20046;-55
2022/07/12 00:49:24;;;;;;;34.70;30.50;;;;;;;;;;6107939;23;20018;-57
2022/07/12 00:51:54;;;;;;;33.42;29.83;;;;;;;;;;6113339;23;20021;-57
2022/07/12 00:54:20;;;;;;;38.92;30.67;;;;;;;;;;6109060;23;20017;-57
2022/07/12 00:56:47;;;;;;;36.92;30.52;;;;;;;;;;6108386;23;20030;-57
2022/07/12 00:59:13;;;;;;;37.10;31.27;;;;;;;;;;6112938;23;20018;-57
2022/07/12 01:01:42;;;;;;;38.63;32.85;;;;;;;;;;6114038;23;20014;-57
2022/07/12 01:04:09;;;;;;;37.20;32.45;;;;;;;;;;6112266;23;20018;-57
2022/07/12 01:06:36;;;;;;;38.13;32.78;;;;;;;;;;6118397;23;20041;-57
2022/07/12 01:09:04;;;;;;;33.28;28.25;;;;;;;;;;6110328;23;20652;-57
2022/07/12 01:11:31;;;;;;;36.10;28.80;;;;;;;;;;6114326;23;20021;-57
2022/07/12 01:13:58;;;;;;;38.15;30.17;;;;;;;;;;6112872;23;20070;-57
2022/07/12 01:16:25;;;;;;;45.85;35.75;;;;;;;;;;6104841;23;20026;-57
2022/07/12 01:18:51;;;;;;;46.97;37.78;;;;;;;;;;6112257;23;20024;-57
2022/07/12 01:21:19;;;;;;;51.22;43.53;;;;;;;;;;6101167;23;20058;-59
2022/07/12 01:23:47;;;;;;;61.10;51.42;;;;;;;;;;6109181;23;20066;-58
2022/07/12 01:26:14;;;;;;;61.25;52.47;;;;;;;;;;6103509;23;20014;-57
2022/07/12 01:28:40;;;;;;;66.20;55.15;;;;;;;;;;6110889;23;20459;-56
2022/07/12 01:31:07;;;;;;;66.72;56.85;;;;;;;;;;6111484;23;20018;-57
2022/07/12 01:33:36;;;;;;;60.03;50.45;;;;;;;;;;6112205;23;20057;-57
2022/07/12 01:36:03;;;;;;;43.20;34.60;;;;;;;;;;6111709;23;20022;-57
2022/07/12 01:38:29;;;;;;;39.72;33.08;;;;;;;;;;6073631;23;20022;-58
2022/07/12 01:40:57;;;;;;;37.70;31.85;;;;;;;;;;6110608;23;20436;-57
2022/07/12 01:43:24;;;;;;;38.80;31.58;;;;;;;;;;6112888;23;20146;-58
2022/07/12 01:45:50;;;;;;;36.53;31.35;;;;;;;;;;6108913;23;20261;-57
2022/07/12 01:48:17;;;;;;;36.53;31.58;;;;;;;;;;6103734;23;20018;-56
2022/07/12 01:50:44;;;;;;;41.15;33.33;;;;;;;;;;6119948;23;20029;-57
2022/07/12 01:53:11;;;;;;;43.17;36.40;;;;;;;;;;6108316;23;20045;-58
2022/07/12 01:55:38;;;;;;;57.47;50.28;;;;;;;;;;6112055;23;20517;-57
2022/07/12 01:58:06;;;;;;;66.50;55.97;;;;;;;;;;6108993;23;20042;-58
2022/07/12 02:00:33;;;;;;;72.28;61.17;;;;;;;;;;6112747;23;20088;-58
2022/07/12 02:03:00;;;;;;;95.40;79.32;;;;;;;;;;6108119;23;20034;-58
2022/07/12 02:05:26;;;;;;;103.25;82.20;;;;;;;;;;6118882;23;20018;-58
2022/07/12 02:07:54;;;;;;;122.60;98.85;;;;;;;;;;6115693;23;20372;-57
2022/07/12 02:10:20;;;;;;;138.52;109.03;;;;;;;;;;6111112;23;20037;-58
2022/07/12 02:12:47;;;;;;;146.10;113.10;;;;;;;;;;6115078;23;20045;-57
2022/07/12 02:15:16;;;;;;;150.05;116.57;;;;;;;;;;6115081;23;20520;-58
2022/07/12 02:17:42;;;;;;;154.48;117.97;;;;;;;;;;6110946;23;20014;-58
2022/07/12 02:20:10;;;;;;;156.27;121.68;;;;;;;;;;6114530;23;20113;-58
2022/07/12 02:22:37;;;;;;;160.88;122.78;;;;;;;;;;6111152;23;20030;-57
2022/07/12 02:25:04;;;;;;;159.43;125.20;;;;;;;;;;6112452;23;20102;-57
2022/07/12 02:27:34;;;;;;;161.82;124.88;;;;;;;;;;6118421;23;20013;-57
2022/07/12 02:30:01;;;;;;;168.98;128.80;;;;;;;;;;6120348;23;20014;-57
2022/07/12 02:32:29;;;;;;;173.25;131.77;;;;;;;;;;6110075;23;20070;-58
2022/07/12 02:34:56;;;;;;;178.77;134.90;;;;;;;;;;6117281;23;20014;-58
2022/07/12 02:37:24;;;;;;;226.48;174.05;;;;;;;;;;6118604;23;20014;-57
2022/07/12 02:39:51;;;;;;;233.77;180.70;;;;;;;;;;6094674;23;20583;-58
2022/07/12 02:42:18;;;;;;;263.35;196.43;;;;;;;;;;6115827;23;20735;-58
2022/07/12 02:44:44;;;;;;;254.95;200.40;;;;;;;;;;6116113;23;20033;-58
2022/07/12 02:47:11;;;;;;;264.67;204.85;;;;;;;;;;6089860;23;20376;-57
2022/07/12 02:49:39;;;;;;;269.55;208.63;;;;;;;;;;6110124;23;20018;-57
2022/07/12 02:52:06;;;;;;;264.70;209.00;;;;;;;;;;6088237;23;20022;-58
2022/07/12 02:54:33;;;;;;;242.93;184.43;;;;;;;;;;6114465;23;20073;-57
2022/07/12 02:56:59;;;;;;;194.88;151.30;;;;;;;;;;6117557;23;20025;-55
2022/07/12 02:59:27;;;;;;;218.95;170.25;;;;;;;;;;6114382;23;20022;-57
2022/07/12 03:01:53;;;;;;;202.90;152.50;;;;;;;;;;6114622;23;20033;-57
2022/07/12 03:04:20;;;;;;;183.98;141.63;;;;;;;;;;6112796;23;20014;-58
2022/07/12 03:06:48;;;;;;;191.93;146.02;;;;;;;;;;6097004;23;20147;-57
2022/07/12 03:09:14;;;;;;;177.68;135.02;;;;;;;;;;6119293;23;20021;-57
2022/07/12 03:11:41;;;;;;;164.40;121.45;;;;;;;;;;6114701;23;20504;-57
2022/07/12 03:14:07;;;;;;;152.02;119.00;;;;;;;;;;6108010;23;20069;-58
2022/07/12 03:16:34;;;;;;;154.10;116.85;;;;;;;;;;6117671;23;20441;-58
2022/07/12 03:19:00;;;;;;;161.05;117.57;;;;;;;;;;6112519;23;20014;-57
2022/07/12 03:21:27;;;;;;;157.10;120.85;;;;;;;;;;6105438;23;20090;-58
2022/07/12 03:23:55;;;;;;;175.48;125.85;;;;;;;;;;6116365;23;20553;-57
2022/07/12 03:26:23;;;;;;;182.43;131.65;;;;;;;;;;6114844;23;20090;-58
2022/07/12 03:28:50;;;;;;;183.60;132.15;;;;;;;;;;6085539;23;20579;-58
2022/07/12 03:31:16;;;;;;;167.35;126.07;;;;;;;;;;6104210;23;20480;-56
2022/07/12 03:33:43;;;;;;;174.48;124.55;;;;;;;;;;6112634;23;20028;-57
2022/07/12 03:36:09;;;;;;;170.98;124.22;;;;;;;;;;6114389;23;20053;-57
2022/07/12 03:38:36;;;;;;;170.15;122.97;;;;;;;;;;6112963;23;20021;-58
2022/07/12 03:41:04;;;;;;;164.55;119.70;;;;;;;;;;6107412;23;20733;-58
2022/07/12 03:43:31;;;;;;;160.13;117.10;;;;;;;;;;6120018;23;20107;-58
2022/07/12 03:45:58;;;;;;;166.02;119.07;;;;;;;;;;6104848;23;20314;-58
2022/07/12 03:48:24;;;;;;;163.80;114.53;;;;;;;;;;6116439;23;20021;-57
2022/07/12 03:50:51;;;;;;;163.82;117.68;;;;;;;;;;6117635;23;20018;-57
2022/07/12 03:53:17;;;;;;;159.95;114.95;;;;;;;;;;6116101;23;20018;-56
2022/07/12 03:55:44;;;;;;;149.77;110.25;;;;;;;;;;6111741;23;20014;-58
2022/07/12 03:58:12;;;;;;;162.90;114.43;;;;;;;;;;6119935;23;20069;-58
2022/07/12 04:00:40;;;;;;;160.77;113.72;;;;;;;;;;6115546;23;20029;-57
2022/07/12 04:03:06;;;;;;;172.98;120.85;;;;;;;;;;6103812;23;20014;-57
2022/07/12 04:05:33;;;;;;;173.63;123.32;;;;;;;;;;6119696;23;20029;-58
2022/07/12 04:08:01;;;;;;;178.02;127.18;;;;;;;;;;6109649;23;20071;-58
2022/07/12 04:10:28;;;;;;;190.60;133.33;;;;;;;;;;6122452;23;20013;-57
2022/07/12 04:12:54;;;;;;;198.80;143.00;;;;;;;;;;6110500;23;20018;-57
2022/07/12 04:15:22;;;;;;;199.05;141.43;;;;;;;;;;6086933;23;20044;-57
2022/07/12 04:17:49;;;;;;;193.07;139.23;;;;;;;;;;6119663;23;20488;-57
2022/07/12 04:20:15;;;;;;;171.93;123.72;;;;;;;;;;6086309;23;20385;-57
2022/07/12 04:22:42;;;;;;;165.38;119.18;;;;;;;;;;6117361;23;20014;-59
2022/07/12 04:25:09;;;;;;;163.32;118.25;;;;;;;;;;6113014;23;20018;-57
2022/07/12 04:27:36;;;;;;;165.35;119.68;;;;;;;;;;6112889;23;20013;-58
2022/07/12 04:30:03;;;;;;;171.45;119.72;;;;;;;;;;6106957;23;20017;-58
2022/07/12 04:32:31;;;;;;;168.85;120.35;;;;;;;;;;6118873;23;20084;-58
2022/07/12 04:34:57;;;;;;;171.13;125.25;;;;;;;;;;6115486;23;20025;-57
2022/07/12 04:37:24;;;;;;;164.18;121.30;;;;;;;;;;6112407;23;20441;-58
2022/07/12 04:39:50;;;;;;;167.55;119.47;;;;;;;;;;6108497;23;20073;-57
2022/07/12 04:42:17;;;;;;;162.05;117.03;;;;;;;;;;6113534;23;20029;-56
2022/07/12 04:44:43;;;;;;;155.55;112.78;;;;;;;;;;6113449;23;20041;-58
2022/07/12 04:47:10;;;;;;;153.25;110.55;;;;;;;;;;6108029;23;20460;-57
2022/07/12 04:49:38;;;;;;;159.70;112.10;;;;;;;;;;6087587;23;20212;-54
2022/07/12 04:52:05;;;;;;;150.73;104.63;;;;;;;;;;6120128;23;20029;-58
2022/07/12 04:54:31;;;;;;;143.30;100.10;;;;;;;;;;6112065;23;20014;-57
2022/07/12 04:56:58;;;;;;;124.85;92.05;;;;;;;;;;6115410;23;20736;-58
2022/07/12 04:59:25;;;;;;;129.80;91.25;;;;;;;;;;6107616;23;20025;-57
2022/07/12 05:01:51;;;;;;;127.93;86.25;;;;;;;;;;6112243;23;20014;-58
2022/07/12 05:04:18;;;;;;;102.00;76.22;;;;;;;;;;6114408;23;20090;-57
2022/07/12 05:06:46;;;;;;;68.18;52.03;;;;;;;;;;6110369;23;20478;-57
2022/07/12 05:09:13;;;;;;;63.10;49.15;;;;;;;;;;6113194;23;20347;-57
2022/07/12 05:11:39;;;;;;;73.10;53.13;;;;;;;;;;6116780;23;20018;-58
2022/07/12 05:14:06;;;;;;;67.25;48.75;;;;;;;;;;6112481;23;20135;-58
2022/07/12 05:16:32;;;;;;;76.63;55.00;;;;;;;;;;6116663;23;20018;-57
2022/07/12 05:19:00;;;;;;;74.35;54.40;;;;;;;;;;6086371;23;20691;-58
2022/07/12 05:21:27;;;;;;;69.72;52.03;;;;;;;;;;6110496;23;20018;-58
2022/07/12 05:23:55;;;;;;;60.00;45.13;;;;;;;;;;6111705;23;20017;-57
2022/07/12 05:26:22;;;;;;;59.33;44.83;;;;;;;;;;6116394;23;20018;-57
2022/07/12 05:28:48;;;;;;;64.00;45.15;;;;;;;;;;6115402;23;20013;-57
2022/07/12 05:31:15;;;;;;;59.45;44.78;;;;;;;;;;6117116;23;20091;-58
2022/07/12 05:33:41;;;;;;;56.53;41.03;;;;;;;;;;6111815;23;20014;-57
2022/07/12 05:36:08;;;;;;;60.83;44.20;;;;;;;;;;6083952;23;20730;-57
2022/07/12 05:38:34;;;;;;;82.47;59.80;;;;;;;;;;6115209;23;20073;-57
2022/07/12 05:41:02;;;;;;;102.30;71.40;;;;;;;;;;6107251;23;20014;-57
2022/07/12 05:43:29;;;;;;;111.80;82.30;;;;;;;;;;6107111;23;20013;-57
2022/07/12 05:45:56;;;;;;;118.47;85.45;;;;;;;;;;6105056;23;20010;-58
2022/07/12 05:48:23;;;;;;;117.75;81.22;;;;;;;;;;6116527;23;20041;-57
2022/07/12 05:50:49;;;;;;;112.40;83.97;;;;;;;;;;6107154;23;20309;-57
2022/07/12 05:53:24;;;;;;;107.28;77.30;;;;;;;;;;6109194;23;20022;-57
2022/07/12 05:55:51;;;;;;;95.00;69.95;;;;;;;;;;6108248;23;20033;-57
2022/07/12 05:58:19;;;;;;;94.75;68.38;;;;;;;;;;6114566;23;20021;-57
2022/07/12 06:00:46;;;;;;;101.72;70.00;;;;;;;;;;6114499;23;20069;-58
2022/07/12 06:03:14;;;;;;;86.97;64.95;;;;;;;;;;6113488;23;20050;-57
2022/07/12 06:05:41;;;;;;;75.80;57.03;;;;;;;;;;6110726;23;20040;-56
2022/07/12 06:08:07;;;;;;;72.88;55.65;;;;;;;;;;6117569;23;20014;-58
2022/07/12 06:10:35;;;;;;;67.60;49.15;;;;;;;;;;6088227;23;20028;-58
2022/07/12 06:13:02;;;;;;;67.85;48.17;;;;;;;;;;6116237;23;20013;-58
2022/07/12 06:15:30;;;;;;;59.75;42.63;;;;;;;;;;6113292;23;20014;-57
2022/07/12 06:17:57;;;;;;;54.28;39.63;;;;;;;;;;6099915;23;20032;-58
2022/07/12 06:20:24;;;;;;;52.15;39.80;;;;;;;;;;6118052;23;20014;-57
2022/07/12 06:22:50;;;;;;;50.30;39.92;;;;;;;;;;6108096;23;20014;-58
2022/07/12 06:25:17;;;;;;;55.33;40.55;;;;;;;;;;6114582;23;20022;-51
2022/07/12 06:27:43;;;;;;;54.33;41.03;;;;;;;;;;6116620;23;20014;-57
2022/07/12 06:30:11;;;;;;;54.53;39.28;;;;;;;;;;6113368;23;20060;-58
2022/07/12 06:32:38;;;;;;;51.40;40.03;;;;;;;;;;6084766;23;20045;-57
2022/07/12 06:35:05;;;;;;;52.83;39.05;;;;;;;;;;6107724;23;20014;-58
2022/07/12 06:37:32;;;;;;;53.50;39.72;;;;;;;;;;6111808;23;20224;-57
2022/07/12 06:39:59;;;;;;;56.92;41.75;;;;;;;;;;6106894;23;20611;-57
2022/07/12 06:42:25;;;;;;;55.60;41.53;;;;;;;;;;6116227;23;20014;-58
2022/07/12 06:44:52;;;;;;;56.50;42.47;;;;;;;;;;6110720;23;20050;-58
2022/07/12 06:47:19;;;;;;;57.13;43.00;;;;;;;;;;6111544;23;20021;-57
2022/07/12 06:49:46;;;;;;;58.75;43.47;;;;;;;;;;6109281;23;20197;-57
2022/07/12 06:52:13;;;;;;;61.00;45.42;;;;;;;;;;6118282;23;20018;-58
2022/07/12 06:54:40;;;;;;;64.07;46.53;;;;;;;;;;6108653;23;20018;-58
2022/07/12 06:57:06;;;;;;;65.82;47.72;;;;;;;;;;6117886;23;20018;-57
2022/07/12 06:59:33;;;;;;;68.20;51.53;;;;;;;;;;6112056;23;20380;-58
2022/07/12 07:02:00;;;;;;;65.70;49.97;;;;;;;;;;6101219;23;20018;-59
2022/07/12 07:04:26;;;;;;;68.38;48.40;;;;;;;;;;6109618;23;20384;-58
2022/07/12 07:06:54;;;;;;;54.40;39.63;;;;;;;;;;6120158;23;20022;-58
2022/07/12 07:09:20;;;;;;;54.90;41.63;;;;;;;;;;6114034;23;20032;-58
2022/07/12 07:11:47;;;;;;;59.88;42.58;;;;;;;;;;6119241;23;20021;-57
2022/07/12 07:14:13;;;;;;;57.03;41.63;;;;;;;;;;6108966;23;20319;-58
2022/07/12 07:16:40;;;;;;;55.38;41.33;;;;;;;;;;6111464;23;20018;-58
2022/07/12 07:19:07;;;;;;;54.28;41.55;;;;;;;;;;6115242;23;20435;-55
2022/07/12 07:21:33;;;;;;;53.17;41.92;;;;;;;;;;6117186;23;20065;-55
2022/07/12 07:24:01;;;;;;;51.08;39.33;;;;;;;;;;6114933;23;20302;-56
2022/07/12 07:26:28;;;;;;;54.63;40.78;;;;;;;;;;6121024;23;20756;-56
2022/07/12 07:31:39;;;;;;;47.70;36.08;;;;;;;;;;6109732;23;20449;-56
2022/07/12 07:34:06;;;;;;;40.42;27.90;;;;;;;;;;6119983;23;20038;-56
2022/07/12 07:36:33;;;;;;;36.38;27.90;;;;;;;;;;6080036;23;20018;-57
2022/07/12 07:39:01;;;;;;;27.50;19.38;;;;;;;;;;6105274;23;20021;-57
2022/07/12 07:41:28;;;;;;;30.60;21.92;;;;;;;;;;6111303;23;20014;-58
2022/07/12 07:43:55;;;;;;;24.55;19.58;;;;;;;;;;6111557;23;20022;-56
2022/07/12 07:46:21;;;;;;;28.23;18.83;;;;;;;;;;6116533;23;20467;-57
2022/07/12 07:48:48;;;;;;;24.90;17.67;;;;;;;;;;6111615;23;20017;-58
2022/07/12 07:51:14;;;;;;;19.90;15.27;;;;;;;;;;6112239;23;20014;-56
2022/07/12 07:53:41;;;;;;;20.70;13.90;;;;;;;;;;6118488;23;20024;-58
2022/07/12 07:56:09;;;;;;;17.58;12.98;;;;;;;;;;6108101;23;20014;-58
2022/07/12 07:58:35;;;;;;;14.43;10.40;;;;;;;;;;6082627;23;20021;-57
2022/07/12 08:01:02;;;;;;;12.27;10.07;;;;;;;;;;6102949;23;20024;-58
2022/07/12 08:03:28;;;;;;;10.80;9.25;;;;;;;;;;6115033;23;20416;-57
2022/07/12 08:05:57;;;;;;;13.98;9.82;;;;;;;;;;6082276;23;20045;-56
2022/07/12 08:08:23;;;;;;;12.70;9.85;;;;;;;;;;6090195;23;20041;-57
2022/07/12 08:10:50;;;;;;;14.95;11.38;;;;;;;;;;6082660;23;20663;-57
2022/07/12 08:13:18;;;;;;;14.57;11.50;;;;;;;;;;6113674;23;20041;-58
2022/07/12 08:15:45;;;;;;;17.95;12.07;;;;;;;;;;6112097;23;20018;-58
2022/07/12 08:18:11;;;;;;;15.02;11.70;;;;;;;;;;6109177;23;20368;-57
2022/07/12 08:20:38;;;;;;;15.70;11.25;;;;;;;;;;6093620;23;20091;-59
2022/07/12 08:23:05;;;;;;;14.88;10.43;;;;;;;;;;6114604;23;20025;-57
2022/07/12 08:25:31;;;;;;;13.10;10.32;;;;;;;;;;6093044;23;20040;-57
2022/07/12 08:27:58;;;;;;;12.38;8.35;;;;;;;;;;6104911;23;20018;-56
2022/07/12 08:30:26;;;;;;;12.10;8.32;;;;;;;;;;6105595;23;20037;-57
2022/07/12 08:32:52;;;;;;;10.98;7.90;;;;;;;;;;6088915;23;20017;-57
2022/07/12 08:35:19;;;;;;;10.05;6.28;;;;;;;;;;6100743;23;20014;-58
2022/07/12 08:37:45;;;;;;;8.30;5.70;;;;;;;;;;6113725;23;20049;-55
2022/07/12 08:40:12;;;;;;;5.82;5.22;;;;;;;;;;6107500;23;20084;-58
2022/07/12 08:42:41;;;;;;;8.48;5.97;;;;;;;;;;6110125;23;20428;-58
2022/07/12 08:45:08;;;;;;;6.95;4.80;;;;;;;;;;6113950;23;20045;-57
2022/07/12 08:47:36;;;;;;;7.07;4.15;;;;;;;;;;6091274;23;20028;-57
2022/07/12 08:50:13;;;;;;;3.92;2.80;;;;;;;;;;6086755;23;20132;-58
2022/07/12 08:52:40;;;;;;;3.55;2.90;;;;;;;;;;6080459;23;20081;-58
2022/07/12 08:55:16;;;;;;;5.28;3.00;;;;;;;;;;6115118;23;20074;-58
2022/07/12 08:57:43;;;;;;;4.50;2.97;;;;;;;;;;6094856;23;20026;-56
2022/07/12 09:00:10;;;;;;;9.18;2.85;;;;;;;;;;6116575;23;20042;-59
2022/07/12 09:02:45;;;;;;;5.03;3.47;;;;;;;;;;6109187;23;20025;-57
2022/07/12 09:05:12;;;;;;;8.43;5.15;;;;;;;;;;6114086;23;20018;-59
2022/07/12 09:07:39;;;;;;;12.40;5.10;;;;;;;;;;6104178;23;20481;-59
2022/07/12 09:10:06;;;;;;;8.80;4.88;;;;;;;;;;6118105;23;20017;-59
2022/07/12 09:12:34;;;;;;;8.05;6.13;;;;;;;;;;6103898;23;20029;-58
2022/07/12 09:15:11;;;;;;;10.27;8.18;;;;;;;;;;6092597;23;20046;-59
2022/07/12 09:17:37;;;;;;;17.63;9.00;;;;;;;;;;6111544;23;20037;-59
2022/07/12 09:20:07;;;;;;;11.73;8.20;;;;;;;;;;6071590;23;20017;-59
2022/07/12 09:22:33;;;;;;;;;;;;;;;;;;6111651;23;20096;-59
2022/07/12 09:25:08;;;;;;;13.82;10.80;;;;;;;;;;6093528;23;19921;-59
2022/07/12 09:27:35;;;;;;;18.40;11.77;;;;;;;;;;6110773;23;20018;-59
2022/07/12 09:30:04;;;;;;;16.55;11.23;;;;;;;;;;6109914;23;20014;-59
2022/07/12 09:38:08;;;;;;;11.38;10.15;;;;;;;;;;6105232;23;20064;-59
2022/07/12 09:40:36;;;;;;;11.10;9.25;;;;;;;;;;6117770;23;20014;-58
2022/07/12 09:43:05;;;;;;;13.20;11.00;;;;;;;;;;6098556;23;20444;-56
2022/07/12 09:45:32;;;;;;;11.75;9.00;;;;;;;;;;6118527;23;20065;-58
2022/07/12 09:47:59;;;;;;;12.27;9.77;;;;;;;;;;6105681;23;20484;-57
2022/07/12 09:50:27;;;;;;;12.20;9.20;;;;;;;;;;6118175;23;20014;-58
2022/07/12 09:52:55;;;;;;;11.80;9.20;;;;;;;;;;6110117;23;20335;-58
2022/07/12 09:55:25;;;;;;;13.48;10.10;;;;;;;;;;6118104;23;20014;-58
2022/07/12 09:57:56;;;;;;;13.02;9.95;;;;;;;;;;6105064;23;20014;-57
2022/07/12 10:00:23;;;;;;;14.70;11.50;;;;;;;;;;6118331;23;20070;-57
2022/07/12 10:02:51;;;;;;;15.07;10.57;;;;;;;;;;6068116;23;20167;-58
2022/07/12 10:05:18;;;;;;;12.35;9.82;;;;;;;;;;6085824;23;20022;-58
2022/07/12 10:07:46;;;;;;;14.23;8.60;;;;;;;;;;6101436;23;20022;-59
2022/07/12 10:10:13;;;;;;;9.23;8.23;;;;;;;;;;6118143;23;20029;-58
2022/07/12 10:12:41;;;;;;;11.27;8.20;;;;;;;;;;6096505;23;20018;-58
2022/07/12 10:15:10;;;;;;;8.48;6.97;;;;;;;;;;6114428;23;20018;-58
2022/07/12 10:17:36;;;;;;;8.38;6.80;;;;;;;;;;6107632;23;20025;-58
2022/07/12 10:20:16;;;;;;;9.50;6.47;;;;;;;;;;6115494;23;20022;-57
2022/07/12 10:22:43;;;;;;;10.38;6.90;;;;;;;;;;6102950;23;20022;-56
2022/07/12 10:25:24;;;;;;;10.77;6.05;;;;;;;;;;6109527;23;20033;-58
2022/07/12 10:27:52;;;;;;;8.50;6.68;;;;;;;;;;6103682;23;20053;-57
2022/07/12 10:30:19;;;;;;;8.27;6.13;;;;;;;;;;6115632;23;20018;-57
2022/07/12 10:32:48;;;;;;;6.72;6.10;;;;;;;;;;6099517;23;20076;-57
2022/07/12 10:35:16;;;;;;;6.20;5.38;;;;;;;;;;6117120;23;20010;-57
2022/07/12 10:37:58;;;;;;;6.03;4.72;;;;;;;;;;6113220;23;20117;-57
2022/07/12 10:40:26;;;;;;;6.13;4.80;;;;;;;;;;6109309;23;20022;-57
2022/07/12 10:43:12;;;;;;;6.97;5.07;;;;;;;;;;6117762;23;20371;-57
2022/07/12 10:45:41;;;;;;;5.72;4.95;;;;;;;;;;6116130;23;20609;-57
2022/07/12 10:48:08;;;;;;;6.50;4.38;;;;;;;;;;6107784;23;20021;-57
2022/07/12 10:50:55;;;;;;;7.03;4.10;;;;;;;;;;6090319;23;20372;-58
2022/07/12 10:53:22;;;;;;;5.05;3.90;;;;;;;;;;6086102;23;20046;-56
2022/07/12 10:56:03;;;;;;;7.00;4.65;;;;;;;;;;6109206;23;20022;-57
2022/07/12 10:58:31;;;;;;;5.82;4.68;;;;;;;;;;6117250;23;20026;-57
2022/07/12 11:00:59;;;;;;;10.15;4.07;;;;;;;;;;6091906;23;20014;-57
2022/07/12 11:03:30;;;;;;;5.50;3.10;;;;;;;;;;6097822;23;20136;-57
2022/07/12 11:06:00;;;;;;;10.77;4.63;;;;;;;;;;6112504;23;20014;-56
2022/07/12 11:08:27;;;;;;;5.50;4.03;;;;;;;;;;6113738;23;20013;-57
2022/07/12 11:10:57;;;;;;;7.70;4.47;;;;;;;;;;6083294;23;20309;-57
2022/07/12 11:13:25;;;;;;;15.13;4.70;;;;;;;;;;6088153;23;20045;-57
2022/07/12 11:15:58;;;;;;;5.07;3.50;;;;;;;;;;6091932;23;20026;-57
2022/07/12 11:18:29;;;;;;;5.82;4.75;;;;;;;;;;6113671;23;20022;-58
2022/07/12 11:20:57;;;;;;;3.63;3.15;;;;;;;;;;6097834;23;20025;-58
2022/07/12 11:23:25;;;;;;;7.97;3.88;;;;;;;;;;6118230;23;20081;-57
2022/07/12 11:25:51;;;;;;;4.50;2.40;;;;;;;;;;6106335;23;20024;-59
2022/07/12 11:28:18;;;;;;;5.10;3.53;;;;;;;;;;6122772;23;20022;-56
2022/07/12 11:30:49;;;;;;;3.83;2.55;;;;;;;;;;6105097;23;20246;-57
2022/07/12 11:33:15;;;;;;;3.83;2.72;;;;;;;;;;6115841;23;20045;-57
2022/07/12 11:35:46;;;;;;;4.15;3.40;;;;;;;;;;6113736;23;20014;-56
2022/07/12 11:38:14;;;;;;;4.30;3.30;;;;;;;;;;6119843;23;20077;-58
2022/07/12 11:40:41;;;;;;;3.75;3.42;;;;;;;;;;6106665;23;20017;-59
2022/07/12 11:43:07;;;;;;;3.33;3.00;;;;;;;;;;6112306;23;20014;-58
2022/07/12 11:45:34;;;;;;;6.07;3.30;;;;;;;;;;6112410;23;20014;-56
2022/07/12 11:48:02;;;;;;;5.15;3.35;;;;;;;;;;6113329;23;20014;-58
2022/07/12 11:50:29;;;;;;;3.22;2.92;;;;;;;;;;6113234;23;20014;-56
2022/07/12 11:52:57;;;;;;;3.88;3.08;;;;;;;;;;6112348;23;20053;-58
2022/07/12 11:55:24;;;;;;;5.47;3.20;;;;;;;;;;6115097;23;20018;-58
2022/07/12 11:57:50;;;;;;;4.82;3.15;;;;;;;;;;6106236;23;20468;-58
2022/07/12 12:00:17;;;;;;;3.88;3.03;;;;;;;;;;6114480;23;20026;-55
2022/07/12 12:02:44;;;;;;;3.75;3.30;;;;;;;;;;6098029;23;20010;-58
2022/07/12 12:05:11;;;;;;;5.80;3.53;;;;;;;;;;6087640;23;20029;-58
2022/07/12 12:07:37;;;;;;;5.63;4.55;;;;;;;;;;6109551;23;20348;-58
2022/07/12 12:10:06;;;;;;;4.70;4.30;;;;;;;;;;6082883;23;20029;-58
2022/07/12 12:12:36;;;;;;;6.82;5.32;;;;;;;;;;6107659;23;20312;-58
2022/07/12 12:15:07;;;;;;;5.47;4.38;;;;;;;;;;6111976;23;20033;-58
2022/07/12 12:17:35;;;;;;;5.32;4.47;;;;;;;;;;6094602;23;20099;-58
2022/07/12 12:20:09;;;;;;;7.30;4.38;;;;;;;;;;6117484;23;20099;-58
2022/07/12 12:22:35;;;;;;;12.80;5.28;;;;;;;;;;6105734;23;20033;-58
2022/07/12 12:25:04;;;;;;;5.43;4.55;;;;;;;;;;6116614;23;20079;-57
2022/07/12 12:27:32;;;;;;;5.60;4.93;;;;;;;;;;6103882;23;20049;-58
2022/07/12 12:29:59;;;;;;;6.50;5.47;;;;;;;;;;6115181;23;20026;-58
2022/07/12 12:32:25;;;;;;;6.97;5.07;;;;;;;;;;6106928;23;20014;-58
2022/07/12 12:35:08;;;;;;;5.13;4.63;;;;;;;;;;6110648;23;20054;-57
2022/07/12 12:37:35;;;;;;;7.93;4.70;;;;;;;;;;6108786;23;20017;-58
2022/07/12 12:40:02;;;;;;;5.28;4.65;;;;;;;;;;6101531;23;20018;-58
2022/07/12 12:42:29;;;;;;;4.07;3.70;;;;;;;;;;6114747;23;20014;-58
2022/07/12 12:44:56;;;;;;;4.32;3.92;;;;;;;;;;6099225;23;20017;-58
2022/07/12 12:47:33;;;;;;;4.70;3.75;;;;;;;;;;6082089;23;20018;-58
2022/07/12 12:50:01;;;;;;;4.20;3.80;;;;;;;;;;6082087;23;20054;-58
2022/07/12 12:52:28;;;;;;;6.32;3.63;;;;;;;;;;6113855;23;20452;-58
2022/07/12 12:54:57;;;;;;;4.03;3.67;;;;;;;;;;6104665;23;20480;-58
2022/07/12 12:57:25;;;;;;;3.50;3.20;;;;;;;;;;6108261;23;20017;-58
2022/07/12 12:59:52;;;;;;;4.32;3.72;;;;;;;;;;6105622;23;20422;-58
2022/07/12 13:02:20;;;;;;;4.85;3.55;;;;;;;;;;6097671;23;20014;-57
2022/07/12 13:04:47;;;;;;;4.40;3.72;;;;;;;;;;6097677;23;20020;-58
2022/07/12 13:07:14;;;;;;;4.05;3.65;;;;;;;;;;6116337;23;20017;-58
2022/07/12 13:09:40;;;;;;;4.60;4.20;;;;;;;;;;6109472;23;20013;-57
2022/07/12 13:12:07;;;;;;;4.40;3.75;;;;;;;;;;6112682;23;20020;-57
2022/07/12 13:14:34;;;;;;;4.22;3.80;;;;;;;;;;6084262;23;20503;-58
2022/07/12 13:17:01;;;;;;;4.32;3.75;;;;;;;;;;6074003;23;20021;-58
2022/07/12 13:19:29;;;;;;;4.30;3.90;;;;;;;;;;6105682;23;20230;-57
2022/07/12 13:21:55;;;;;;;3.50;3.20;;;;;;;;;;6114061;23;20076;-57
2022/07/12 13:24:22;;;;;;;5.90;4.60;;;;;;;;;;6112536;23;20026;-58
2022/07/12 13:26:48;;;;;;;6.10;4.05;;;;;;;;;;6105072;23;20472;-58
2022/07/12 13:29:15;;;;;;;5.72;4.03;;;;;;;;;;6120389;23;20029;-58
2022/07/12 13:31:41;;;;;;;5.53;3.75;;;;;;;;;;6111581;23;20030;-58
2022/07/12 13:34:08;;;;;;;6.78;3.83;;;;;;;;;;6107693;23;20014;-58
2022/07/12 13:36:36;;;;;;;4.28;3.88;;;;;;;;;;6119147;23;20014;-58
2022/07/12 13:40:10;;;;;;;5.05;3.83;;;;;;;;;;6093171;23;20026;-58
2022/07/12 13:41:49;;;;;;;3.92;3.63;;;;;;;;;;6099772;23;20044;-58
2022/07/12 13:44:16;;;;;;;3.17;2.67;;;;;;;;;;6088817;23;20018;-58
2022/07/12 13:46:43;;;;;;;2.70;2.50;;;;;;;;;;6064193;23;20024;-57
2022/07/12 13:49:09;;;;;;;2.70;2.40;;;;;;;;;;6086316;23;20529;-56
2022/07/12 13:51:37;;;;;;;4.50;2.22;;;;;;;;;;6087475;23;20453;-58
2022/07/12 13:54:04;;;;;;;2.28;1.70;;;;;;;;;;6092939;23;20025;-58
2022/07/12 13:56:31;;;;;;;3.60;1.60;;;;;;;;;;6117511;23;20037;-57
2022/07/12 13:58:57;;;;;;;3.22;2.17;;;;;;;;;;6115996;23;20025;-56
2022/07/12 14:01:24;;;;;;;2.40;1.83;;;;;;;;;;6114314;23;20020;-58
2022/07/12 14:03:50;;;;;;;1.55;1.30;;;;;;;;;;6115970;23;20353;-58
2022/07/12 14:06:17;;;;;;;4.05;1.30;;;;;;;;;;6111918;23;20025;-58
2022/07/12 14:08:45;;;;;;;1.70;1.40;;;;;;;;;;6109091;23;20014;-57
2022/07/12 14:11:11;;;;;;;2.00;1.80;;;;;;;;;;6109155;23;20013;-58
2022/07/12 14:13:38;;;;;;;1.45;1.35;;;;;;;;;;6113271;23;20029;-56
2022/07/12 14:16:05;;;;;;;2.78;2.55;;;;;;;;;;6107180;23;20046;-57
2022/07/12 14:18:32;;;;;;;1.88;1.65;;;;;;;;;;6109497;23;20098;-56
2022/07/12 14:20:58;;;;;;;1.00;0.90;;;;;;;;;;6105505;23;20030;-56
2022/07/12 14:23:25;;;;;;;1.80;1.70;;;;;;;;;;6091315;23;20014;-57
2022/07/12 14:25:54;;;;;;;3.75;1.65;;;;;;;;;;6091780;23;20014;-57
2022/07/12 14:28:21;;;;;;;1.42;1.10;;;;;;;;;;6112414;23;20145;-57
2022/07/12 14:30:47;;;;;;;2.58;0.80;;;;;;;;;;6117410;23;20037;-57